Terminal Aerodrome Forecast
Issued by NWS Denver/Boulder, CO

Home | Current Version | Previous Version | Text Only | Print | Product List | Glossary On
Versions: 1 2 3 4 5 6 7 8 9 10 11 12 13 14 15 16 17 18 19 20 21 22 23 24 25 26 27 28 29 30 31 32 33 34 35 36 37 38 39 40 41 42 43 44 45 46 47 48 49 50
000
FTUS45 KBOU 200410 AAC
TAFDEN
TAF AMD
KDEN 200410Z 2004/2106 09006KT P6SM SCT110 SCT200
     FM200600 25007KT P6SM SCT090 SCT140 BKN200
     FM200900 32009KT P6SM FEW090 SCT120 SCT200
     FM201400 36010KT P6SM FEW070 SCT120
     FM201800 04008KT P6SM SCT070
     FM202200 07010KT P6SM SCT070 SCT120 BKN200
     FM210200 15008KT P6SM SCT070 BKN120=

USA.gov is the U.S. government's official web portal to all federal, state and local government web resources and services.